sensor_id;sensor_type;location;lat;lon;timestamp;P1;durP1;ratioP1;P2;durP2;ratioP2
27839;SDS011;15207;42.182;24.308;2023-07-22T00:00:10;8.50;;;3.80;;
27839;SDS011;15207;42.182;24.308;2023-07-22T00:05:06;8.10;;;3.80;;
27839;SDS011;15207;42.182;24.308;2023-07-22T00:07:32;7.80;;;3.80;;
27839;SDS011;15207;42.182;24.308;2023-07-22T00:09:59;7.45;;;3.30;;
27839;SDS011;15207;42.182;24.308;2023-07-22T00:12:25;7.20;;;3.70;;
27839;SDS011;15207;42.182;24.308;2023-07-22T00:14:51;8.50;;;3.40;;
27839;SDS011;15207;42.182;24.308;2023-07-22T00:17:18;10.20;;;3.60;;
27839;SDS011;15207;42.182;24.308;2023-07-22T00:19:44;8.10;;;4.00;;
27839;SDS011;15207;42.182;24.308;2023-07-22T00:22:09;5.10;;;3.45;;
27839;SDS011;15207;42.182;24.308;2023-07-22T00:24:35;13.10;;;4.20;;
27839;SDS011;15207;42.182;24.308;2023-07-22T00:27:01;9.25;;;3.40;;
27839;SDS011;15207;42.182;24.308;2023-07-22T00:29:27;6.30;;;3.35;;
27839;SDS011;15207;42.182;24.308;2023-07-22T00:31:53;5.10;;;3.40;;
27839;SDS011;15207;42.182;24.308;2023-07-22T00:34:18;7.20;;;3.70;;
27839;SDS011;15207;42.182;24.308;2023-07-22T00:36:44;9.20;;;4.10;;
27839;SDS011;15207;42.182;24.308;2023-07-22T00:39:12;6.75;;;3.55;;
27839;SDS011;15207;42.182;24.308;2023-07-22T00:41:39;7.85;;;3.70;;
27839;SDS011;15207;42.182;24.308;2023-07-22T00:44:05;6.85;;;4.25;;
27839;SDS011;15207;42.182;24.308;2023-07-22T00:46:31;7.00;;;4.15;;
27839;SDS011;15207;42.182;24.308;2023-07-22T00:48:56;6.50;;;3.80;;
27839;SDS011;15207;42.182;24.308;2023-07-22T00:51:22;7.43;;;4.23;;
27839;SDS011;15207;42.182;24.308;2023-07-22T00:53:48;7.95;;;4.00;;
27839;SDS011;15207;42.182;24.308;2023-07-22T01:01:07;8.55;;;3.90;;
27839;SDS011;15207;42.182;24.308;2023-07-22T01:03:32;7.40;;;3.60;;
27839;SDS011;15207;42.182;24.308;2023-07-22T01:08:26;8.60;;;3.90;;
27839;SDS011;15207;42.182;24.308;2023-07-22T01:10:52;8.40;;;4.40;;
27839;SDS011;15207;42.182;24.308;2023-07-22T01:15:43;8.70;;;4.10;;
27839;SDS011;15207;42.182;24.308;2023-07-22T01:18:09;10.60;;;4.00;;
27839;SDS011;15207;42.182;24.308;2023-07-22T01:20:35;10.30;;;4.00;;
27839;SDS011;15207;42.182;24.308;2023-07-22T01:27:53;6.50;;;4.10;;
27839;SDS011;15207;42.182;24.308;2023-07-22T01:30:18;8.40;;;4.35;;
27839;SDS011;15207;42.182;24.308;2023-07-22T01:32:44;6.43;;;4.00;;
27839;SDS011;15207;42.182;24.308;2023-07-22T01:37:37;9.05;;;4.30;;
27839;SDS011;15207;42.182;24.308;2023-07-22T01:40:03;6.75;;;3.85;;
27839;SDS011;15207;42.182;24.308;2023-07-22T01:42:48;8.35;;;3.70;;
27839;SDS011;15207;42.182;24.308;2023-07-22T01:45:14;7.90;;;4.40;;
27839;SDS011;15207;42.182;24.308;2023-07-22T01:47:40;7.80;;;4.40;;
27839;SDS011;15207;42.182;24.308;2023-07-22T01:50:06;7.47;;;4.20;;
27839;SDS011;15207;42.182;24.308;2023-07-22T01:52:32;11.60;;;4.20;;
27839;SDS011;15207;42.182;24.308;2023-07-22T01:54:58;8.10;;;3.80;;
27839;SDS011;15207;42.182;24.308;2023-07-22T01:57:23;13.70;;;4.40;;
27839;SDS011;15207;42.182;24.308;2023-07-22T02:02:15;6.90;;;4.05;;
27839;SDS011;15207;42.182;24.308;2023-07-22T02:04:40;5.85;;;4.00;;
27839;SDS011;15207;42.182;24.308;2023-07-22T02:07:06;7.15;;;4.85;;
27839;SDS011;15207;42.182;24.308;2023-07-22T02:12:00;10.40;;;4.55;;
27839;SDS011;15207;42.182;24.308;2023-07-22T02:14:26;10.10;;;3.90;;
27839;SDS011;15207;42.182;24.308;2023-07-22T02:16:52;7.80;;;4.20;;
27839;SDS011;15207;42.182;24.308;2023-07-22T02:19:18;9.07;;;4.17;;
27839;SDS011;15207;42.182;24.308;2023-07-22T02:21:43;8.10;;;4.10;;
27839;SDS011;15207;42.182;24.308;2023-07-22T02:26:35;7.70;;;4.15;;
27839;SDS011;15207;42.182;24.308;2023-07-22T02:29:01;5.60;;;3.70;;
27839;SDS011;15207;42.182;24.308;2023-07-22T02:31:27;10.10;;;4.00;;
27839;SDS011;15207;42.182;24.308;2023-07-22T02:36:20;12.65;;;4.30;;
27839;SDS011;15207;42.182;24.308;2023-07-22T02:38:46;11.65;;;4.65;;
27839;SDS011;15207;42.182;24.308;2023-07-22T02:41:12;8.33;;;4.37;;
27839;SDS011;15207;42.182;24.308;2023-07-22T02:43:38;8.30;;;4.30;;
27839;SDS011;15207;42.182;24.308;2023-07-22T02:46:06;7.05;;;4.40;;
27839;SDS011;15207;42.182;24.308;2023-07-22T02:48:33;10.07;;;4.70;;
27839;SDS011;15207;42.182;24.308;2023-07-22T02:51:03;8.20;;;4.40;;
27839;SDS011;15207;42.182;24.308;2023-07-22T02:53:33;15.60;;;5.00;;
27839;SDS011;15207;42.182;24.308;2023-07-22T02:55:59;9.40;;;5.70;;
27839;SDS011;15207;42.182;24.308;2023-07-22T02:58:26;11.10;;;5.30;;
27839;SDS011;15207;42.182;24.308;2023-07-22T03:00:52;14.00;;;5.90;;
27839;SDS011;15207;42.182;24.308;2023-07-22T03:10:35;10.15;;;5.05;;
27839;SDS011;15207;42.182;24.308;2023-07-22T03:13:01;22.90;;;7.00;;
27839;SDS011;15207;42.182;24.308;2023-07-22T03:15:27;18.80;;;5.95;;
27839;SDS011;15207;42.182;24.308;2023-07-22T03:17:53;11.00;;;5.50;;
27839;SDS011;15207;42.182;24.308;2023-07-22T03:20:21;11.90;;;5.40;;
27839;SDS011;15207;42.182;24.308;2023-07-22T03:25:13;16.15;;;6.10;;
27839;SDS011;15207;42.182;24.308;2023-07-22T03:27:42;11.65;;;5.60;;
27839;SDS011;15207;42.182;24.308;2023-07-22T03:30:10;9.75;;;5.10;;
27839;SDS011;15207;42.182;24.308;2023-07-22T03:32:41;9.90;;;5.00;;
27839;SDS011;15207;42.182;24.308;2023-07-22T03:35:08;11.00;;;5.20;;
27839;SDS011;15207;42.182;24.308;2023-07-22T03:37:37;10.90;;;4.70;;
27839;SDS011;15207;42.182;24.308;2023-07-22T03:40:04;11.00;;;5.15;;
27839;SDS011;15207;42.182;24.308;2023-07-22T03:42:40;13.25;;;5.05;;
27839;SDS011;15207;42.182;24.308;2023-07-22T03:45:14;12.25;;;5.35;;
27839;SDS011;15207;42.182;24.308;2023-07-22T03:47:40;12.50;;;5.90;;
27839;SDS011;15207;42.182;24.308;2023-07-22T03:54:57;11.20;;;4.80;;
27839;SDS011;15207;42.182;24.308;2023-07-22T03:57:26;9.90;;;4.60;;
27839;SDS011;15207;42.182;24.308;2023-07-22T04:02:19;11.75;;;5.70;;
27839;SDS011;15207;42.182;24.308;2023-07-22T04:04:45;11.30;;;5.40;;
27839;SDS011;15207;42.182;24.308;2023-07-22T04:07:10;13.20;;;5.50;;
27839;SDS011;15207;42.182;24.308;2023-07-22T04:09:36;14.70;;;7.28;;
27839;SDS011;15207;42.182;24.308;2023-07-22T04:12:02;12.00;;;5.70;;
27839;SDS011;15207;42.182;24.308;2023-07-22T04:14:28;10.98;;;5.70;;
27839;SDS011;15207;42.182;24.308;2023-07-22T04:16:54;12.20;;;4.80;;
27839;SDS011;15207;42.182;24.308;2023-07-22T04:19:20;5.78;;;4.32;;
27839;SDS011;15207;42.182;24.308;2023-07-22T04:21:45;11.30;;;5.00;;
27839;SDS011;15207;42.182;24.308;2023-07-22T04:24:11;7.90;;;4.20;;
27839;SDS011;15207;42.182;24.308;2023-07-22T04:26:37;13.75;;;5.00;;
27839;SDS011;15207;42.182;24.308;2023-07-22T04:29:04;8.80;;;4.80;;
27839;SDS011;15207;42.182;24.308;2023-07-22T04:33:57;8.10;;;4.80;;
27839;SDS011;15207;42.182;24.308;2023-07-22T04:36:22;9.45;;;4.10;;
27839;SDS011;15207;42.182;24.308;2023-07-22T04:43:39;7.10;;;4.30;;
27839;SDS011;15207;42.182;24.308;2023-07-22T04:46:05;10.40;;;4.30;;
27839;SDS011;15207;42.182;24.308;2023-07-22T04:48:32;7.40;;;4.10;;
27839;SDS011;15207;42.182;24.308;2023-07-22T04:53:23;7.70;;;4.30;;
27839;SDS011;15207;42.182;24.308;2023-07-22T04:55:49;9.00;;;4.30;;
27839;SDS011;15207;42.182;24.308;2023-07-22T04:58:14;9.50;;;4.10;;
27839;SDS011;15207;42.182;24.308;2023-07-22T05:03:07;7.60;;;4.20;;
27839;SDS011;15207;42.182;24.308;2023-07-22T05:05:33;6.90;;;4.70;;
27839;SDS011;15207;42.182;24.308;2023-07-22T05:07:59;10.20;;;4.90;;
27839;SDS011;15207;42.182;24.308;2023-07-22T05:10:24;6.80;;;4.30;;
27839;SDS011;15207;42.182;24.308;2023-07-22T05:12:50;8.30;;;4.60;;
27839;SDS011;15207;42.182;24.308;2023-07-22T05:15:16;6.40;;;3.90;;
27839;SDS011;15207;42.182;24.308;2023-07-22T05:17:42;7.80;;;4.30;;
27839;SDS011;15207;42.182;24.308;2023-07-22T05:20:08;9.40;;;4.70;;
27839;SDS011;15207;42.182;24.308;2023-07-22T05:22:38;8.30;;;4.45;;
27839;SDS011;15207;42.182;24.308;2023-07-22T05:25:05;12.40;;;4.10;;
27839;SDS011;15207;42.182;24.308;2023-07-22T05:27:31;10.50;;;3.90;;
27839;SDS011;15207;42.182;24.308;2023-07-22T05:32:23;8.80;;;4.50;;
27839;SDS011;15207;42.182;24.308;2023-07-22T05:34:49;10.90;;;3.80;;
27839;SDS011;15207;42.182;24.308;2023-07-22T05:37:14;8.80;;;4.10;;
27839;SDS011;15207;42.182;24.308;2023-07-22T05:39:40;5.80;;;3.90;;
27839;SDS011;15207;42.182;24.308;2023-07-22T05:42:06;6.70;;;4.00;;
27839;SDS011;15207;42.182;24.308;2023-07-22T05:44:31;8.10;;;4.10;;
27839;SDS011;15207;42.182;24.308;2023-07-22T05:46:57;8.90;;;3.90;;
27839;SDS011;15207;42.182;24.308;2023-07-22T05:49:23;6.55;;;3.65;;
27839;SDS011;15207;42.182;24.308;2023-07-22T05:54:14;7.10;;;4.10;;
27839;SDS011;15207;42.182;24.308;2023-07-22T05:56:40;6.40;;;3.50;;
27839;SDS011;15207;42.182;24.308;2023-07-22T05:59:06;5.45;;;3.40;;
27839;SDS011;15207;42.182;24.308;2023-07-22T06:01:32;6.10;;;3.40;;
27839;SDS011;15207;42.182;24.308;2023-07-22T06:03:58;6.10;;;3.50;;
27839;SDS011;15207;42.182;24.308;2023-07-22T06:06:23;5.70;;;3.20;;
27839;SDS011;15207;42.182;24.308;2023-07-22T06:08:49;6.90;;;3.50;;
27839;SDS011;15207;42.182;24.308;2023-07-22T06:11:15;8.40;;;3.70;;
27839;SDS011;15207;42.182;24.308;2023-07-22T06:13:40;6.30;;;4.00;;
27839;SDS011;15207;42.182;24.308;2023-07-22T06:16:06;10.70;;;4.60;;
27839;SDS011;15207;42.182;24.308;2023-07-22T06:18:32;4.80;;;3.60;;
27839;SDS011;15207;42.182;24.308;2023-07-22T06:20:57;7.45;;;3.85;;
27839;SDS011;15207;42.182;24.308;2023-07-22T06:23:23;10.60;;;3.90;;
27839;SDS011;15207;42.182;24.308;2023-07-22T06:25:49;4.40;;;3.40;;
27839;SDS011;15207;42.182;24.308;2023-07-22T06:28:15;6.45;;;3.85;;
27839;SDS011;15207;42.182;24.308;2023-07-22T06:33:06;11.80;;;4.55;;
27839;SDS011;15207;42.182;24.308;2023-07-22T06:37:57;8.10;;;3.80;;
27839;SDS011;15207;42.182;24.308;2023-07-22T06:42:49;5.30;;;3.70;;
27839;SDS011;15207;42.182;24.308;2023-07-22T06:47:40;6.20;;;4.10;;
27839;SDS011;15207;42.182;24.308;2023-07-22T06:50:06;11.10;;;3.80;;
27839;SDS011;15207;42.182;24.308;2023-07-22T06:52:33;6.35;;;3.80;;
27839;SDS011;15207;42.182;24.308;2023-07-22T06:54:58;6.30;;;3.55;;
27839;SDS011;15207;42.182;24.308;2023-07-22T06:57:25;5.75;;;3.55;;
27839;SDS011;15207;42.182;24.308;2023-07-22T06:59:53;8.77;;;3.78;;
27839;SDS011;15207;42.182;24.308;2023-07-22T07:02:19;6.50;;;3.70;;
27839;SDS011;15207;42.182;24.308;2023-07-22T07:04:46;7.55;;;3.50;;
27839;SDS011;15207;42.182;24.308;2023-07-22T07:07:12;10.90;;;5.40;;
27839;SDS011;15207;42.182;24.308;2023-07-22T07:09:38;9.30;;;4.30;;
27839;SDS011;15207;42.182;24.308;2023-07-22T07:14:30;6.00;;;3.70;;
27839;SDS011;15207;42.182;24.308;2023-07-22T07:16:58;6.05;;;3.85;;
27839;SDS011;15207;42.182;24.308;2023-07-22T07:19:23;5.30;;;3.90;;
27839;SDS011;15207;42.182;24.308;2023-07-22T07:21:49;9.10;;;3.60;;
27839;SDS011;15207;42.182;24.308;2023-07-22T07:24:14;6.80;;;4.00;;
27839;SDS011;15207;42.182;24.308;2023-07-22T07:26:41;5.50;;;3.30;;
27839;SDS011;15207;42.182;24.308;2023-07-22T07:29:07;7.60;;;3.70;;
27839;SDS011;15207;42.182;24.308;2023-07-22T07:31:33;8.40;;;4.10;;
27839;SDS011;15207;42.182;24.308;2023-07-22T07:33:59;6.75;;;3.50;;
27839;SDS011;15207;42.182;24.308;2023-07-22T07:36:25;8.00;;;3.80;;
27839;SDS011;15207;42.182;24.308;2023-07-22T07:38:50;7.90;;;3.40;;
27839;SDS011;15207;42.182;24.308;2023-07-22T07:41:16;7.90;;;4.00;;
27839;SDS011;15207;42.182;24.308;2023-07-22T07:43:42;8.40;;;3.90;;
27839;SDS011;15207;42.182;24.308;2023-07-22T07:46:13;7.10;;;3.60;;
27839;SDS011;15207;42.182;24.308;2023-07-22T07:48:39;6.80;;;3.90;;
27839;SDS011;15207;42.182;24.308;2023-07-22T07:51:05;5.00;;;3.30;;
27839;SDS011;15207;42.182;24.308;2023-07-22T07:53:31;9.05;;;4.00;;
27839;SDS011;15207;42.182;24.308;2023-07-22T07:55:57;4.20;;;3.50;;
27839;SDS011;15207;42.182;24.308;2023-07-22T08:00:48;10.40;;;3.80;;
27839;SDS011;15207;42.182;24.308;2023-07-22T08:10:30;7.00;;;3.35;;
27839;SDS011;15207;42.182;24.308;2023-07-22T08:17:47;5.70;;;3.25;;
27839;SDS011;15207;42.182;24.308;2023-07-22T08:20:13;7.77;;;3.67;;
27839;SDS011;15207;42.182;24.308;2023-07-22T08:25:05;7.00;;;3.90;;
27839;SDS011;15207;42.182;24.308;2023-07-22T08:27:30;6.50;;;3.60;;
27839;SDS011;15207;42.182;24.308;2023-07-22T08:29:56;7.90;;;4.00;;
27839;SDS011;15207;42.182;24.308;2023-07-22T08:32:21;5.35;;;3.70;;
27839;SDS011;15207;42.182;24.308;2023-07-22T08:34:47;5.80;;;3.30;;
27839;SDS011;15207;42.182;24.308;2023-07-22T08:37:13;7.70;;;4.10;;
27839;SDS011;15207;42.182;24.308;2023-07-22T08:39:40;7.00;;;4.20;;
27839;SDS011;15207;42.182;24.308;2023-07-22T08:42:06;8.20;;;3.60;;
27839;SDS011;15207;42.182;24.308;2023-07-22T08:44:33;6.45;;;3.50;;
27839;SDS011;15207;42.182;24.308;2023-07-22T08:47:08;7.20;;;3.70;;
27839;SDS011;15207;42.182;24.308;2023-07-22T08:49:37;7.50;;;3.70;;
27839;SDS011;15207;42.182;24.308;2023-07-22T08:52:05;9.10;;;4.10;;
27839;SDS011;15207;42.182;24.308;2023-07-22T08:54:32;6.30;;;3.80;;
27839;SDS011;15207;42.182;24.308;2023-07-22T08:56:58;5.95;;;3.80;;
27839;SDS011;15207;42.182;24.308;2023-07-22T08:59:24;6.70;;;3.80;;
27839;SDS011;15207;42.182;24.308;2023-07-22T09:01:50;7.90;;;3.40;;
27839;SDS011;15207;42.182;24.308;2023-07-22T09:06:45;9.35;;;3.40;;
27839;SDS011;15207;42.182;24.308;2023-07-22T09:09:11;5.75;;;3.50;;
27839;SDS011;15207;42.182;24.308;2023-07-22T09:11:38;5.40;;;4.10;;
27839;SDS011;15207;42.182;24.308;2023-07-22T09:14:04;7.50;;;3.60;;
27839;SDS011;15207;42.182;24.308;2023-07-22T09:16:30;7.00;;;3.70;;
27839;SDS011;15207;42.182;24.308;2023-07-22T09:18:57;7.23;;;3.80;;
27839;SDS011;15207;42.182;24.308;2023-07-22T09:23:49;7.45;;;3.85;;
27839;SDS011;15207;42.182;24.308;2023-07-22T09:26:15;6.55;;;3.90;;
27839;SDS011;15207;42.182;24.308;2023-07-22T09:28:55;7.50;;;3.80;;
27839;SDS011;15207;42.182;24.308;2023-07-22T09:31:24;6.40;;;3.60;;
27839;SDS011;15207;42.182;24.308;2023-07-22T09:38:44;8.55;;;4.00;;
27839;SDS011;15207;42.182;24.308;2023-07-22T09:43:36;7.45;;;3.75;;
27839;SDS011;15207;42.182;24.308;2023-07-22T09:46:07;7.55;;;3.25;;
27839;SDS011;15207;42.182;24.308;2023-07-22T09:48:43;12.30;;;3.60;;
27839;SDS011;15207;42.182;24.308;2023-07-22T09:51:14;7.20;;;3.40;;
27839;SDS011;15207;42.182;24.308;2023-07-22T09:53:47;7.40;;;3.50;;
27839;SDS011;15207;42.182;24.308;2023-07-22T09:56:24;7.70;;;3.60;;
27839;SDS011;15207;42.182;24.308;2023-07-22T09:58:49;8.25;;;3.75;;
27839;SDS011;15207;42.182;24.308;2023-07-22T10:01:20;6.50;;;3.90;;
27839;SDS011;15207;42.182;24.308;2023-07-22T10:03:55;6.20;;;3.75;;
27839;SDS011;15207;42.182;24.308;2023-07-22T10:06:24;6.20;;;3.70;;
27839;SDS011;15207;42.182;24.308;2023-07-22T10:08:52;11.50;;;3.90;;
27839;SDS011;15207;42.182;24.308;2023-07-22T10:11:25;6.10;;;3.20;;
27839;SDS011;15207;42.182;24.308;2023-07-22T10:13:53;5.25;;;3.20;;
27839;SDS011;15207;42.182;24.308;2023-07-22T10:16:20;6.75;;;4.00;;
27839;SDS011;15207;42.182;24.308;2023-07-22T10:18:47;8.45;;;3.65;;
27839;SDS011;15207;42.182;24.308;2023-07-22T10:21:14;7.10;;;3.60;;
27839;SDS011;15207;42.182;24.308;2023-07-22T10:23:40;8.10;;;3.70;;
27839;SDS011;15207;42.182;24.308;2023-07-22T10:28:39;6.55;;;3.65;;
27839;SDS011;15207;42.182;24.308;2023-07-22T10:31:06;9.70;;;4.35;;
27839;SDS011;15207;42.182;24.308;2023-07-22T10:33:32;10.60;;;3.70;;
27839;SDS011;15207;42.182;24.308;2023-07-22T10:38:33;7.30;;;3.90;;
27839;SDS011;15207;42.182;24.308;2023-07-22T10:41:11;8.60;;;4.20;;
27839;SDS011;15207;42.182;24.308;2023-07-22T10:43:57;8.50;;;3.75;;
27839;SDS011;15207;42.182;24.308;2023-07-22T10:46:58;9.90;;;3.80;;
27839;SDS011;15207;42.182;24.308;2023-07-22T10:49:24;7.95;;;3.55;;
27839;SDS011;15207;42.182;24.308;2023-07-22T10:52:07;8.20;;;3.70;;
27839;SDS011;15207;42.182;24.308;2023-07-22T10:54:36;6.70;;;3.50;;
27839;SDS011;15207;42.182;24.308;2023-07-22T10:57:03;8.30;;;3.80;;
27839;SDS011;15207;42.182;24.308;2023-07-22T10:59:48;8.80;;;3.80;;
27839;SDS011;15207;42.182;24.308;2023-07-22T11:02:25;6.60;;;3.90;;
27839;SDS011;15207;42.182;24.308;2023-07-22T11:04:52;7.20;;;3.80;;
27839;SDS011;15207;42.182;24.308;2023-07-22T11:07:31;8.40;;;3.45;;
27839;SDS011;15207;42.182;24.308;2023-07-22T11:10:10;10.40;;;3.80;;
27839;SDS011;15207;42.182;24.308;2023-07-22T11:12:42;12.90;;;4.10;;
27839;SDS011;15207;42.182;24.308;2023-07-22T11:15:09;7.05;;;3.75;;
27839;SDS011;15207;42.182;24.308;2023-07-22T11:17:35;11.55;;;4.30;;
27839;SDS011;15207;42.182;24.308;2023-07-22T11:20:03;9.60;;;4.00;;
27839;SDS011;15207;42.182;24.308;2023-07-22T11:22:30;10.25;;;4.05;;
27839;SDS011;15207;42.182;24.308;2023-07-22T11:24:55;11.55;;;3.55;;
27839;SDS011;15207;42.182;24.308;2023-07-22T11:27:25;8.40;;;3.85;;
27839;SDS011;15207;42.182;24.308;2023-07-22T11:29:51;14.40;;;4.80;;
27839;SDS011;15207;42.182;24.308;2023-07-22T11:32:19;7.70;;;3.90;;
27839;SDS011;15207;42.182;24.308;2023-07-22T11:34:47;9.40;;;4.00;;
27839;SDS011;15207;42.182;24.308;2023-07-22T11:37:13;8.90;;;3.85;;
27839;SDS011;15207;42.182;24.308;2023-07-22T11:39:40;9.85;;;4.35;;
27839;SDS011;15207;42.182;24.308;2023-07-22T11:42:07;8.00;;;3.50;;
27839;SDS011;15207;42.182;24.308;2023-07-22T11:44:33;11.90;;;3.60;;
27839;SDS011;15207;42.182;24.308;2023-07-22T11:47:03;7.10;;;3.90;;
27839;SDS011;15207;42.182;24.308;2023-07-22T11:52:08;10.20;;;3.50;;
27839;SDS011;15207;42.182;24.308;2023-07-22T11:54:37;9.30;;;3.80;;
27839;SDS011;15207;42.182;24.308;2023-07-22T12:02:05;8.85;;;3.35;;
27839;SDS011;15207;42.182;24.308;2023-07-22T12:06:59;13.30;;;3.60;;
27839;SDS011;15207;42.182;24.308;2023-07-22T12:09:26;8.60;;;3.65;;
27839;SDS011;15207;42.182;24.308;2023-07-22T12:11:58;9.30;;;3.30;;
27839;SDS011;15207;42.182;24.308;2023-07-22T12:14:32;8.10;;;4.20;;
27839;SDS011;15207;42.182;24.308;2023-07-22T12:17:00;10.90;;;3.30;;
27839;SDS011;15207;42.182;24.308;2023-07-22T12:19:27;10.80;;;3.70;;
27839;SDS011;15207;42.182;24.308;2023-07-22T12:21:57;9.25;;;3.30;;
27839;SDS011;15207;42.182;24.308;2023-07-22T12:24:23;8.60;;;3.80;;
27839;SDS011;15207;42.182;24.308;2023-07-22T12:26:50;10.90;;;3.80;;
27839;SDS011;15207;42.182;24.308;2023-07-22T12:29:15;17.70;;;4.30;;
27839;SDS011;15207;42.182;24.308;2023-07-22T12:31:41;10.35;;;3.45;;
27839;SDS011;15207;42.182;24.308;2023-07-22T12:36:32;7.90;;;3.60;;
27839;SDS011;15207;42.182;24.308;2023-07-22T12:38:58;7.50;;;3.30;;
27839;SDS011;15207;42.182;24.308;2023-07-22T12:41:24;8.90;;;3.40;;
27839;SDS011;15207;42.182;24.308;2023-07-22T12:43:50;10.95;;;3.80;;
27839;SDS011;15207;42.182;24.308;2023-07-22T12:46:17;9.05;;;3.25;;
27839;SDS011;15207;42.182;24.308;2023-07-22T12:48:43;7.70;;;3.30;;
27839;SDS011;15207;42.182;24.308;2023-07-22T12:51:08;12.00;;;3.10;;
27839;SDS011;15207;42.182;24.308;2023-07-22T12:53:34;10.00;;;3.90;;
27839;SDS011;15207;42.182;24.308;2023-07-22T12:56:00;13.00;;;3.45;;
27839;SDS011;15207;42.182;24.308;2023-07-22T12:58:28;11.33;;;3.83;;
27839;SDS011;15207;42.182;24.308;2023-07-22T13:00:55;10.50;;;4.00;;
27839;SDS011;15207;42.182;24.308;2023-07-22T13:03:20;9.00;;;3.40;;
27839;SDS011;15207;42.182;24.308;2023-07-22T13:05:46;15.10;;;4.10;;
27839;SDS011;15207;42.182;24.308;2023-07-22T13:08:11;7.55;;;3.10;;
27839;SDS011;15207;42.182;24.308;2023-07-22T13:10:37;10.90;;;3.30;;
27839;SDS011;15207;42.182;24.308;2023-07-22T13:13:04;10.30;;;3.65;;
27839;SDS011;15207;42.182;24.308;2023-07-22T13:15:31;8.05;;;3.35;;
27839;SDS011;15207;42.182;24.308;2023-07-22T13:17:58;13.95;;;3.85;;
27839;SDS011;15207;42.182;24.308;2023-07-22T13:20:24;7.90;;;3.70;;
27839;SDS011;15207;42.182;24.308;2023-07-22T13:22:49;11.75;;;3.40;;
27839;SDS011;15207;42.182;24.308;2023-07-22T13:25:15;8.40;;;3.20;;
27839;SDS011;15207;42.182;24.308;2023-07-22T13:27:41;12.60;;;3.70;;
27839;SDS011;15207;42.182;24.308;2023-07-22T13:32:33;10.40;;;3.30;;
27839;SDS011;15207;42.182;24.308;2023-07-22T13:34:59;12.85;;;3.35;;
27839;SDS011;15207;42.182;24.308;2023-07-22T13:37:25;10.20;;;3.30;;
27839;SDS011;15207;42.182;24.308;2023-07-22T13:39:51;8.70;;;2.90;;
27839;SDS011;15207;42.182;24.308;2023-07-22T13:42:18;8.95;;;3.40;;
27839;SDS011;15207;42.182;24.308;2023-07-22T13:44:44;11.40;;;3.75;;
27839;SDS011;15207;42.182;24.308;2023-07-22T13:47:10;11.25;;;3.40;;
27839;SDS011;15207;42.182;24.308;2023-07-22T13:49:36;10.20;;;3.60;;
27839;SDS011;15207;42.182;24.308;2023-07-22T13:52:02;9.40;;;3.10;;
27839;SDS011;15207;42.182;24.308;2023-07-22T13:54:28;11.70;;;3.80;;
27839;SDS011;15207;42.182;24.308;2023-07-22T13:56:54;13.10;;;3.70;;
27839;SDS011;15207;42.182;24.308;2023-07-22T13:59:19;12.40;;;3.30;;
27839;SDS011;15207;42.182;24.308;2023-07-22T14:01:45;10.40;;;3.00;;
27839;SDS011;15207;42.182;24.308;2023-07-22T14:04:11;12.90;;;4.10;;
27839;SDS011;15207;42.182;24.308;2023-07-22T14:06:37;13.50;;;3.80;;
27839;SDS011;15207;42.182;24.308;2023-07-22T14:09:03;12.25;;;2.95;;
27839;SDS011;15207;42.182;24.308;2023-07-22T14:11:29;12.20;;;3.20;;
27839;SDS011;15207;42.182;24.308;2023-07-22T14:13:55;16.20;;;3.30;;
27839;SDS011;15207;42.182;24.308;2023-07-22T14:16:21;11.10;;;3.10;;
27839;SDS011;15207;42.182;24.308;2023-07-22T14:18:48;7.00;;;3.40;;
27839;SDS011;15207;42.182;24.308;2023-07-22T14:21:14;13.10;;;3.50;;
27839;SDS011;15207;42.182;24.308;2023-07-22T14:23:40;13.20;;;3.40;;
27839;SDS011;15207;42.182;24.308;2023-07-22T14:26:07;10.10;;;3.20;;
27839;SDS011;15207;42.182;24.308;2023-07-22T14:28:33;9.20;;;3.10;;
27839;SDS011;15207;42.182;24.308;2023-07-22T14:30:59;9.55;;;2.90;;
27839;SDS011;15207;42.182;24.308;2023-07-22T14:40:41;12.50;;;4.75;;
27839;SDS011;15207;42.182;24.308;2023-07-22T14:43:07;11.50;;;2.90;;
27839;SDS011;15207;42.182;24.308;2023-07-22T14:47:58;13.40;;;4.20;;
27839;SDS011;15207;42.182;24.308;2023-07-22T14:50:25;12.10;;;3.60;;
27839;SDS011;15207;42.182;24.308;2023-07-22T14:55:16;11.80;;;3.20;;
27839;SDS011;15207;42.182;24.308;2023-07-22T14:57:42;7.60;;;3.00;;
27839;SDS011;15207;42.182;24.308;2023-07-22T15:00:08;10.50;;;3.35;;
27839;SDS011;15207;42.182;24.308;2023-07-22T15:02:35;11.30;;;3.90;;
27839;SDS011;15207;42.182;24.308;2023-07-22T15:05:01;12.00;;;3.30;;
27839;SDS011;15207;42.182;24.308;2023-07-22T15:07:26;10.80;;;3.20;;
27839;SDS011;15207;42.182;24.308;2023-07-22T15:09:53;10.15;;;3.65;;
27839;SDS011;15207;42.182;24.308;2023-07-22T15:14:45;8.20;;;3.20;;
27839;SDS011;15207;42.182;24.308;2023-07-22T15:19:36;10.20;;;3.00;;
27839;SDS011;15207;42.182;24.308;2023-07-22T15:24:28;8.20;;;2.65;;
27839;SDS011;15207;42.182;24.308;2023-07-22T15:26:54;10.00;;;3.00;;
27839;SDS011;15207;42.182;24.308;2023-07-22T15:29:21;9.20;;;3.55;;
27839;SDS011;15207;42.182;24.308;2023-07-22T15:31:46;12.75;;;3.20;;
27839;SDS011;15207;42.182;24.308;2023-07-22T15:34:12;12.35;;;3.15;;
27839;SDS011;15207;42.182;24.308;2023-07-22T15:41:30;12.25;;;2.95;;
27839;SDS011;15207;42.182;24.308;2023-07-22T15:43:55;12.65;;;3.45;;
27839;SDS011;15207;42.182;24.308;2023-07-22T15:46:21;8.30;;;2.70;;
27839;SDS011;15207;42.182;24.308;2023-07-22T15:48:47;10.40;;;2.80;;
27839;SDS011;15207;42.182;24.308;2023-07-22T15:51:13;15.20;;;3.45;;
27839;SDS011;15207;42.182;24.308;2023-07-22T15:53:39;10.70;;;3.10;;
27839;SDS011;15207;42.182;24.308;2023-07-22T15:56:04;12.50;;;3.40;;
27839;SDS011;15207;42.182;24.308;2023-07-22T16:00:56;11.73;;;2.70;;
27839;SDS011;15207;42.182;24.308;2023-07-22T16:03:22;8.15;;;2.90;;
27839;SDS011;15207;42.182;24.308;2023-07-22T16:08:13;11.40;;;3.30;;
27839;SDS011;15207;42.182;24.308;2023-07-22T16:13:04;15.50;;;2.80;;
27839;SDS011;15207;42.182;24.308;2023-07-22T16:15:29;10.60;;;2.80;;
27839;SDS011;15207;42.182;24.308;2023-07-22T16:17:55;10.50;;;3.00;;
27839;SDS011;15207;42.182;24.308;2023-07-22T16:20:20;12.80;;;3.25;;
27839;SDS011;15207;42.182;24.308;2023-07-22T16:22:47;10.50;;;2.80;;
27839;SDS011;15207;42.182;24.308;2023-07-22T16:25:14;9.45;;;3.35;;
27839;SDS011;15207;42.182;24.308;2023-07-22T16:27:40;13.40;;;3.10;;
27839;SDS011;15207;42.182;24.308;2023-07-22T16:30:06;11.40;;;3.10;;
27839;SDS011;15207;42.182;24.308;2023-07-22T16:32:35;15.80;;;3.50;;
27839;SDS011;15207;42.182;24.308;2023-07-22T16:35:02;15.15;;;3.70;;
27839;SDS011;15207;42.182;24.308;2023-07-22T16:37:28;16.00;;;3.45;;
27839;SDS011;15207;42.182;24.308;2023-07-22T16:39:54;11.85;;;3.00;;
27839;SDS011;15207;42.182;24.308;2023-07-22T16:42:20;10.20;;;2.80;;
27839;SDS011;15207;42.182;24.308;2023-07-22T16:44:46;13.60;;;3.25;;
27839;SDS011;15207;42.182;24.308;2023-07-22T16:47:12;14.40;;;3.30;;
27839;SDS011;15207;42.182;24.308;2023-07-22T16:49:38;10.95;;;3.50;;
27839;SDS011;15207;42.182;24.308;2023-07-22T16:52:05;11.00;;;3.25;;
27839;SDS011;15207;42.182;24.308;2023-07-22T16:54:30;13.75;;;3.65;;
27839;SDS011;15207;42.182;24.308;2023-07-22T16:56:57;10.55;;;3.55;;
27839;SDS011;15207;42.182;24.308;2023-07-22T16:59:24;12.85;;;3.50;;
27839;SDS011;15207;42.182;24.308;2023-07-22T17:01:51;12.10;;;3.70;;